sensor_id;sensor_type;location;lat;lon;timestamp;pressure;altitude;pressure_sealevel;temperature;humidity
83361;BME280;73274;50.882;5.984;2023-12-20T00:00:55;99473.56;;;6.04;100.00
83361;BME280;73274;50.882;5.984;2023-12-20T00:03:20;99444.72;;;5.92;100.00
83361;BME280;73274;50.882;5.984;2023-12-20T00:05:47;99459.69;;;5.86;100.00
83361;BME280;73274;50.882;5.984;2023-12-20T00:08:12;99478.47;;;5.95;100.00
83361;BME280;73274;50.882;5.984;2023-12-20T00:10:38;99477.75;;;6.00;100.00
83361;BME280;73274;50.882;5.984;2023-12-20T00:13:03;99482.75;;;6.01;100.00
83361;BME280;73274;50.882;5.984;2023-12-20T00:15:29;99477.31;;;6.08;100.00
83361;BME280;73274;50.882;5.984;2023-12-20T00:17:54;99472.78;;;6.03;100.00
83361;BME280;73274;50.882;5.984;2023-12-20T00:20:19;99481.59;;;6.14;100.00
83361;BME280;73274;50.882;5.984;2023-12-20T00:22:45;99472.41;;;5.94;100.00
83361;BME280;73274;50.882;5.984;2023-12-20T00:25:10;99491.31;;;5.91;100.00
83361;BME280;73274;50.882;5.984;2023-12-20T00:27:36;99490.13;;;5.82;100.00
83361;BME280;73274;50.882;5.984;2023-12-20T00:30:01;99504.66;;;5.85;100.00
83361;BME280;73274;50.882;5.984;2023-12-20T00:32:27;99500.22;;;5.85;100.00
83361;BME280;73274;50.882;5.984;2023-12-20T00:34:52;99521.41;;;5.79;100.00
83361;BME280;73274;50.882;5.984;2023-12-20T00:37:17;99509.63;;;5.81;100.00
83361;BME280;73274;50.882;5.984;2023-12-20T00:39:42;99522.88;;;5.70;100.00
83361;BME280;73274;50.882;5.984;2023-12-20T00:42:08;99514.94;;;5.48;100.00
83361;BME280;73274;50.882;5.984;2023-12-20T00:44:33;99525.88;;;5.40;100.00
83361;BME280;73274;50.882;5.984;2023-12-20T00:46:59;99515.94;;;5.25;100.00
83361;BME280;73274;50.882;5.984;2023-12-20T00:49:24;99524.69;;;5.31;100.00
83361;BME280;73274;50.882;5.984;2023-12-20T00:51:50;99535.00;;;5.16;100.00
83361;BME280;73274;50.882;5.984;2023-12-20T00:54:17;99541.44;;;5.08;100.00
83361;BME280;73274;50.882;5.984;2023-12-20T00:56:43;99553.97;;;5.01;100.00
83361;BME280;73274;50.882;5.984;2023-12-20T00:59:09;99535.19;;;4.81;100.00
83361;BME280;73274;50.882;5.984;2023-12-20T01:01:34;99534.94;;;4.66;100.00
83361;BME280;73274;50.882;5.984;2023-12-20T01:03:59;99545.03;;;4.57;100.00
83361;BME280;73274;50.882;5.984;2023-12-20T01:06:25;99546.31;;;4.43;100.00
83361;BME280;73274;50.882;5.984;2023-12-20T01:08:50;99554.34;;;4.36;100.00
83361;BME280;73274;50.882;5.984;2023-12-20T01:11:16;99529.84;;;4.19;100.00
83361;BME280;73274;50.882;5.984;2023-12-20T01:13:41;99550.94;;;4.24;100.00
83361;BME280;73274;50.882;5.984;2023-12-20T01:16:10;99552.34;;;4.27;100.00
83361;BME280;73274;50.882;5.984;2023-12-20T01:18:35;99549.56;;;4.33;100.00
83361;BME280;73274;50.882;5.984;2023-12-20T01:21:02;99542.72;;;4.32;100.00
83361;BME280;73274;50.882;5.984;2023-12-20T01:23:28;99551.09;;;4.46;100.00
83361;BME280;73274;50.882;5.984;2023-12-20T01:25:54;99556.63;;;4.45;100.00
83361;BME280;73274;50.882;5.984;2023-12-20T01:28:19;99551.56;;;4.43;100.00
83361;BME280;73274;50.882;5.984;2023-12-20T01:30:45;99545.06;;;4.46;100.00
83361;BME280;73274;50.882;5.984;2023-12-20T01:33:10;99545.78;;;4.41;100.00
83361;BME280;73274;50.882;5.984;2023-12-20T01:35:35;99544.16;;;4.52;100.00
83361;BME280;73274;50.882;5.984;2023-12-20T01:38:01;99548.94;;;4.43;100.00
83361;BME280;73274;50.882;5.984;2023-12-20T01:40:26;99549.19;;;4.42;100.00
83361;BME280;73274;50.882;5.984;2023-12-20T01:43:06;99549.88;;;4.37;100.00
83361;BME280;73274;50.882;5.984;2023-12-20T01:45:31;99536.41;;;4.33;100.00
83361;BME280;73274;50.882;5.984;2023-12-20T01:47:58;99549.56;;;4.33;100.00
83361;BME280;73274;50.882;5.984;2023-12-20T01:50:25;99522.19;;;4.18;100.00
83361;BME280;73274;50.882;5.984;2023-12-20T01:52:50;99549.34;;;4.35;100.00
83361;BME280;73274;50.882;5.984;2023-12-20T01:55:20;99559.03;;;4.34;100.00
83361;BME280;73274;50.882;5.984;2023-12-20T01:57:46;99554.50;;;4.30;100.00
83361;BME280;73274;50.882;5.984;2023-12-20T02:00:13;99539.22;;;4.15;100.00
83361;BME280;73274;50.882;5.984;2023-12-20T02:02:40;99553.50;;;4.19;100.00
83361;BME280;73274;50.882;5.984;2023-12-20T02:05:06;99563.06;;;4.25;100.00
83361;BME280;73274;50.882;5.984;2023-12-20T02:07:32;99574.03;;;4.22;100.00
83361;BME280;73274;50.882;5.984;2023-12-20T02:09:59;99569.25;;;4.19;100.00
83361;BME280;73274;50.882;5.984;2023-12-20T02:12:25;99577.66;;;4.33;100.00
83361;BME280;73274;50.882;5.984;2023-12-20T02:14:50;99558.19;;;4.17;100.00
83361;BME280;73274;50.882;5.984;2023-12-20T02:17:16;99557.59;;;4.15;100.00
83361;BME280;73274;50.882;5.984;2023-12-20T02:19:43;99565.59;;;4.20;100.00
83361;BME280;73274;50.882;5.984;2023-12-20T02:22:11;99555.34;;;4.07;100.00
83361;BME280;73274;50.882;5.984;2023-12-20T02:24:37;99550.19;;;4.12;100.00
83361;BME280;73274;50.882;5.984;2023-12-20T02:27:07;99548.03;;;4.09;100.00
83361;BME280;73274;50.882;5.984;2023-12-20T02:29:34;99566.66;;;4.08;100.00
83361;BME280;73274;50.882;5.984;2023-12-20T02:31:59;99585.81;;;4.20;100.00
83361;BME280;73274;50.882;5.984;2023-12-20T02:34:25;99572.88;;;4.18;100.00
83361;BME280;73274;50.882;5.984;2023-12-20T02:36:50;99580.44;;;4.26;100.00
83361;BME280;73274;50.882;5.984;2023-12-20T02:39:16;99560.34;;;4.20;100.00
83361;BME280;73274;50.882;5.984;2023-12-20T02:41:42;99584.88;;;4.26;100.00
83361;BME280;73274;50.882;5.984;2023-12-20T02:44:07;99584.75;;;4.21;100.00
83361;BME280;73274;50.882;5.984;2023-12-20T02:46:33;99580.56;;;4.20;100.00
83361;BME280;73274;50.882;5.984;2023-12-20T02:48:58;99573.13;;;4.17;100.00
83361;BME280;73274;50.882;5.984;2023-12-20T02:51:24;99561.59;;;4.18;100.00
83361;BME280;73274;50.882;5.984;2023-12-20T02:53:49;99547.47;;;4.07;100.00
83361;BME280;73274;50.882;5.984;2023-12-20T02:56:14;99555.34;;;4.07;100.00
83361;BME280;73274;50.882;5.984;2023-12-20T02:58:40;99560.69;;;4.12;100.00
83361;BME280;73274;50.882;5.984;2023-12-20T03:01:05;99579.19;;;4.17;100.00
83361;BME280;73274;50.882;5.984;2023-12-20T03:03:31;99588.44;;;4.20;100.00
83361;BME280;73274;50.882;5.984;2023-12-20T03:05:56;99572.25;;;4.11;100.00
83361;BME280;73274;50.882;5.984;2023-12-20T03:08:22;99593.09;;;4.18;100.00
83361;BME280;73274;50.882;5.984;2023-12-20T03:10:47;99578.59;;;4.15;100.00
83361;BME280;73274;50.882;5.984;2023-12-20T03:13:13;99582.75;;;4.11;100.00
83361;BME280;73274;50.882;5.984;2023-12-20T03:15:38;99568.69;;;4.06;100.00
83361;BME280;73274;50.882;5.984;2023-12-20T03:18:04;99585.25;;;4.06;100.00
83361;BME280;73274;50.882;5.984;2023-12-20T03:20:29;99580.34;;;4.10;100.00
83361;BME280;73274;50.882;5.984;2023-12-20T03:22:58;99576.78;;;4.16;100.00
83361;BME280;73274;50.882;5.984;2023-12-20T03:25:23;99565.50;;;4.04;100.00
83361;BME280;73274;50.882;5.984;2023-12-20T03:27:49;99582.88;;;4.05;100.00
83361;BME280;73274;50.882;5.984;2023-12-20T03:30:14;99585.25;;;4.06;100.00
83361;BME280;73274;50.882;5.984;2023-12-20T03:32:40;99559.59;;;3.85;100.00
83361;BME280;73274;50.882;5.984;2023-12-20T03:35:05;99560.16;;;3.87;100.00
83361;BME280;73274;50.882;5.984;2023-12-20T03:37:31;99556.41;;;3.83;100.00
83361;BME280;73274;50.882;5.984;2023-12-20T03:39:56;99566.44;;;3.86;100.00
83361;BME280;73274;50.882;5.984;2023-12-20T03:42:22;99550.13;;;3.72;100.00
83361;BME280;73274;50.882;5.984;2023-12-20T03:44:47;99552.09;;;3.77;100.00
83361;BME280;73274;50.882;5.984;2023-12-20T03:47:12;99564.16;;;3.90;100.00
83361;BME280;73274;50.882;5.984;2023-12-20T03:49:38;99549.91;;;3.74;100.00
83361;BME280;73274;50.882;5.984;2023-12-20T03:52:04;99542.03;;;3.62;100.00
83361;BME280;73274;50.882;5.984;2023-12-20T03:54:30;99561.66;;;3.71;100.00
83361;BME280;73274;50.882;5.984;2023-12-20T03:56:55;99579.44;;;3.81;100.00
83361;BME280;73274;50.882;5.984;2023-12-20T03:59:20;99566.56;;;3.79;100.00
83361;BME280;73274;50.882;5.984;2023-12-20T04:01:46;99550.47;;;3.76;100.00
83361;BME280;73274;50.882;5.984;2023-12-20T04:04:12;99552.75;;;3.72;100.00
83361;BME280;73274;50.882;5.984;2023-12-20T04:06:38;99536.31;;;3.65;100.00
83361;BME280;73274;50.882;5.984;2023-12-20T04:09:03;99565.31;;;3.82;100.00
83361;BME280;73274;50.882;5.984;2023-12-20T04:11:29;99558.69;;;3.91;100.00
83361;BME280;73274;50.882;5.984;2023-12-20T04:13:54;99549.91;;;3.86;100.00
83361;BME280;73274;50.882;5.984;2023-12-20T04:16:20;99560.88;;;3.71;100.00
83361;BME280;73274;50.882;5.984;2023-12-20T04:18:45;99561.09;;;3.69;100.00
83361;BME280;73274;50.882;5.984;2023-12-20T04:21:10;99571.13;;;3.72;100.00
83361;BME280;73274;50.882;5.984;2023-12-20T04:23:36;99561.19;;;3.74;100.00
83361;BME280;73274;50.882;5.984;2023-12-20T04:26:01;99552.31;;;3.75;100.00
83361;BME280;73274;50.882;5.984;2023-12-20T04:28:27;99553.56;;;3.73;100.00
83361;BME280;73274;50.882;5.984;2023-12-20T04:30:55;99549.78;;;3.69;100.00
83361;BME280;73274;50.882;5.984;2023-12-20T04:33:21;99541.47;;;3.72;100.00
83361;BME280;73274;50.882;5.984;2023-12-20T04:35:46;99561.66;;;3.83;100.00
83361;BME280;73274;50.882;5.984;2023-12-20T04:38:12;99549.56;;;3.70;100.00
83361;BME280;73274;50.882;5.984;2023-12-20T04:40:37;99572.94;;;3.95;100.00
83361;BME280;73274;50.882;5.984;2023-12-20T04:43:04;99569.06;;;3.86;100.00
83361;BME280;73274;50.882;5.984;2023-12-20T04:45:29;99587.09;;;3.94;100.00
83361;BME280;73274;50.882;5.984;2023-12-20T04:47:55;99574.53;;;3.96;100.00
83361;BME280;73274;50.882;5.984;2023-12-20T04:50:20;99582.09;;;3.93;100.00
83361;BME280;73274;50.882;5.984;2023-12-20T04:52:46;99570.19;;;3.90;100.00
83361;BME280;73274;50.882;5.984;2023-12-20T04:55:12;99577.94;;;3.97;100.00
83361;BME280;73274;50.882;5.984;2023-12-20T04:57:37;99587.44;;;3.98;100.00
83361;BME280;73274;50.882;5.984;2023-12-20T05:00:03;99561.09;;;3.93;100.00
83361;BME280;73274;50.882;5.984;2023-12-20T05:02:30;99579.31;;;3.99;100.00
83361;BME280;73274;50.882;5.984;2023-12-20T05:04:55;99579.78;;;3.96;100.00
83361;BME280;73274;50.882;5.984;2023-12-20T05:07:20;99583.09;;;4.03;100.00
83361;BME280;73274;50.882;5.984;2023-12-20T05:09:46;99583.09;;;4.03;100.00
83361;BME280;73274;50.882;5.984;2023-12-20T05:12:12;99567.56;;;4.02;100.00
83361;BME280;73274;50.882;5.984;2023-12-20T05:14:37;99568.59;;;4.01;100.00
83361;BME280;73274;50.882;5.984;2023-12-20T05:17:03;99572.13;;;4.06;100.00
83361;BME280;73274;50.882;5.984;2023-12-20T05:19:28;99563.56;;;3.99;100.00
83361;BME280;73274;50.882;5.984;2023-12-20T05:21:54;99570.53;;;4.05;100.00
83361;BME280;73274;50.882;5.984;2023-12-20T05:24:19;99564.94;;;4.02;100.00
83361;BME280;73274;50.882;5.984;2023-12-20T05:26:44;99584.78;;;4.09;100.00
83361;BME280;73274;50.882;5.984;2023-12-20T05:29:10;99566.44;;;3.98;100.00
83361;BME280;73274;50.882;5.984;2023-12-20T05:31:35;99574.53;;;4.08;100.00
83361;BME280;73274;50.882;5.984;2023-12-20T05:34:01;99550.91;;;3.96;100.00
83361;BME280;73274;50.882;5.984;2023-12-20T05:36:26;99566.19;;;3.99;100.00
83361;BME280;73274;50.882;5.984;2023-12-20T05:38:51;99557.88;;;3.91;100.00
83361;BME280;73274;50.882;5.984;2023-12-20T05:41:17;99547.63;;;3.89;100.00
83361;BME280;73274;50.882;5.984;2023-12-20T05:43:42;99568.03;;;3.99;100.00
83361;BME280;73274;50.882;5.984;2023-12-20T05:46:10;99553.44;;;3.91;100.00
83361;BME280;73274;50.882;5.984;2023-12-20T05:48:36;99556.59;;;3.93;100.00
83361;BME280;73274;50.882;5.984;2023-12-20T05:51:01;99547.63;;;3.89;100.00
83361;BME280;73274;50.882;5.984;2023-12-20T05:53:27;99568.38;;;4.02;100.00
83361;BME280;73274;50.882;5.984;2023-12-20T05:55:52;99566.44;;;3.98;100.00
83361;BME280;73274;50.882;5.984;2023-12-20T05:58:18;99579.19;;;4.06;100.00
83361;BME280;73274;50.882;5.984;2023-12-20T06:00:43;99574.53;;;4.08;100.00
83361;BME280;73274;50.882;5.984;2023-12-20T06:03:09;99567.13;;;4.05;100.00
83361;BME280;73274;50.882;5.984;2023-12-20T06:05:34;99567.31;;;4.03;100.00
83361;BME280;73274;50.882;5.984;2023-12-20T06:07:59;99575.91;;;3.99;100.00
83361;BME280;73274;50.882;5.984;2023-12-20T06:10:28;99583.09;;;3.92;100.00
83361;BME280;73274;50.882;5.984;2023-12-20T06:12:53;99565.66;;;3.86;100.00
83361;BME280;73274;50.882;5.984;2023-12-20T06:15:19;99565.88;;;3.84;100.00
83361;BME280;73274;50.882;5.984;2023-12-20T06:17:45;99581.50;;;3.91;100.00
83361;BME280;73274;50.882;5.984;2023-12-20T06:20:12;99566.69;;;3.73;100.00
83361;BME280;73274;50.882;5.984;2023-12-20T06:22:38;99578.56;;;3.64;100.00
83361;BME280;73274;50.882;5.984;2023-12-20T06:25:04;99588.94;;;3.59;100.00
83361;BME280;73274;50.882;5.984;2023-12-20T06:27:29;99572.50;;;3.52;100.00
83361;BME280;73274;50.882;5.984;2023-12-20T06:30:00;99587.34;;;3.58;100.00
83361;BME280;73274;50.882;5.984;2023-12-20T06:32:26;99580.28;;;3.58;100.00
83361;BME280;73274;50.882;5.984;2023-12-20T06:34:51;99569.28;;;3.50;100.00
83361;BME280;73274;50.882;5.984;2023-12-20T06:37:16;99588.81;;;3.65;100.00
83361;BME280;73274;50.882;5.984;2023-12-20T06:39:42;99579.13;;;3.54;100.00
83361;BME280;73274;50.882;5.984;2023-12-20T06:42:07;99591.44;;;3.65;100.00
83361;BME280;73274;50.882;5.984;2023-12-20T06:44:33;99573.97;;;3.59;100.00
83361;BME280;73274;50.882;5.984;2023-12-20T06:46:58;99573.06;;;3.54;100.00
83361;BME280;73274;50.882;5.984;2023-12-20T06:49:23;99599.75;;;3.62;100.00
83361;BME280;73274;50.882;5.984;2023-12-20T06:51:49;99590.53;;;3.60;100.00
83361;BME280;73274;50.882;5.984;2023-12-20T06:54:14;99607.63;;;3.62;100.00
83361;BME280;73274;50.882;5.984;2023-12-20T06:56:40;99607.97;;;3.66;100.00
83361;BME280;73274;50.882;5.984;2023-12-20T06:59:06;99610.59;;;3.66;100.00
83361;BME280;73274;50.882;5.984;2023-12-20T07:01:32;99598.38;;;3.60;100.00
83361;BME280;73274;50.882;5.984;2023-12-20T07:03:57;99595.91;;;3.65;100.00
83361;BME280;73274;50.882;5.984;2023-12-20T07:06:22;99572.84;;;3.55;100.00
83361;BME280;73274;50.882;5.984;2023-12-20T07:08:48;99597.63;;;3.71;100.00
83361;BME280;73274;50.882;5.984;2023-12-20T07:11:13;99574.78;;;3.60;100.00
83361;BME280;73274;50.882;5.984;2023-12-20T07:13:39;99613.56;;;3.69;100.00
83361;BME280;73274;50.882;5.984;2023-12-20T07:16:04;99593.13;;;3.71;100.00
83361;BME280;73274;50.882;5.984;2023-12-20T07:18:30;99583.69;;;3.59;100.00
83361;BME280;73274;50.882;5.984;2023-12-20T07:20:55;99571.34;;;3.59;100.00
83361;BME280;73274;50.882;5.984;2023-12-20T07:23:21;99605.69;;;3.69;100.00
83361;BME280;73274;50.882;5.984;2023-12-20T07:25:47;99590.41;;;3.66;100.00
83361;BME280;73274;50.882;5.984;2023-12-20T07:28:12;99596.47;;;3.67;100.00
83361;BME280;73274;50.882;5.984;2023-12-20T07:30:39;99594.41;;;3.69;100.00
83361;BME280;73274;50.882;5.984;2023-12-20T07:33:04;99589.16;;;3.57;100.00
83361;BME280;73274;50.882;5.984;2023-12-20T07:35:30;99591.56;;;3.59;100.00
83361;BME280;73274;50.882;5.984;2023-12-20T07:37:55;99585.94;;;3.44;100.00
83361;BME280;73274;50.882;5.984;2023-12-20T07:40:21;99595.88;;;3.42;100.00
83361;BME280;73274;50.882;5.984;2023-12-20T07:42:46;99592.22;;;3.31;100.00
83361;BME280;73274;50.882;5.984;2023-12-20T07:45:12;99590.81;;;3.28;100.00
83361;BME280;73274;50.882;5.984;2023-12-20T07:47:37;99570.91;;;3.28;100.00
83361;BME280;73274;50.882;5.984;2023-12-20T07:50:03;99579.69;;;3.33;100.00
83361;BME280;73274;50.882;5.984;2023-12-20T07:52:29;99587.19;;;3.41;100.00
83361;BME280;73274;50.882;5.984;2023-12-20T07:54:55;99578.53;;;3.29;100.00
83361;BME280;73274;50.882;5.984;2023-12-20T07:57:21;99587.75;;;3.32;100.00
83361;BME280;73274;50.882;5.984;2023-12-20T07:59:46;99586.53;;;3.34;100.00
83361;BME280;73274;50.882;5.984;2023-12-20T08:02:11;99587.91;;;3.37;100.00
83361;BME280;73274;50.882;5.984;2023-12-20T08:04:37;99585.38;;;3.30;100.00
83361;BME280;73274;50.882;5.984;2023-12-20T08:07:03;99584.91;;;3.33;100.00
83361;BME280;73274;50.882;5.984;2023-12-20T08:09:29;99595.16;;;3.35;100.00
83361;BME280;73274;50.882;5.984;2023-12-20T08:11:55;99567.69;;;3.25;100.00
83361;BME280;73274;50.882;5.984;2023-12-20T08:14:20;99605.91;;;3.56;100.00
83361;BME280;73274;50.882;5.984;2023-12-20T08:16:46;99588.25;;;3.52;100.00
83361;BME280;73274;50.882;5.984;2023-12-20T08:19:12;99595.22;;;3.58;100.00
83361;BME280;73274;50.882;5.984;2023-12-20T08:21:38;99576.28;;;3.56;100.00
83361;BME280;73274;50.882;5.984;2023-12-20T08:24:04;99575.03;;;3.58;100.00
83361;BME280;73274;50.882;5.984;2023-12-20T08:26:30;99587.78;;;3.66;100.00
83361;BME280;73274;50.882;5.984;2023-12-20T08:28:55;99575.13;;;3.63;100.00
83361;BME280;73274;50.882;5.984;2023-12-20T08:31:21;99550.72;;;3.63;100.00
83361;BME280;73274;50.882;5.984;2023-12-20T08:33:48;99548.34;;;3.61;100.00
83361;BME280;73274;50.882;5.984;2023-12-20T08:36:14;99583.00;;;3.75;100.00
83361;BME280;73274;50.882;5.984;2023-12-20T08:38:40;99570.91;;;3.62;99.82
83361;BME280;73274;50.882;5.984;2023-12-20T08:41:06;99598.28;;;3.78;99.79
83361;BME280;73274;50.882;5.984;2023-12-20T08:43:32;99600.69;;;3.79;99.72
83361;BME280;73274;50.882;5.984;2023-12-20T08:45:59;99602.84;;;3.83;99.71
83361;BME280;73274;50.882;5.984;2023-12-20T08:48:24;99606.03;;;3.85;99.75
83361;BME280;73274;50.882;5.984;2023-12-20T08:50:50;99613.91;;;3.85;99.31
83361;BME280;73274;50.882;5.984;2023-12-20T08:53:17;99627.16;;;3.90;98.43
83361;BME280;73274;50.882;5.984;2023-12-20T08:55:44;99594.75;;;3.72;98.21
83361;BME280;73274;50.882;5.984;2023-12-20T08:58:09;99627.16;;;3.90;98.45
83361;BME280;73274;50.882;5.984;2023-12-20T09:00:35;99600.91;;;3.78;98.43
83361;BME280;73274;50.882;5.984;2023-12-20T09:03:01;99604.47;;;3.84;97.71
83361;BME280;73274;50.882;5.984;2023-12-20T09:05:27;99611.19;;;3.91;97.90
83361;BME280;73274;50.882;5.984;2023-12-20T09:07:53;99610.03;;;3.87;97.71
83361;BME280;73274;50.882;5.984;2023-12-20T09:10:18;99592.69;;;3.86;97.99
83361;BME280;73274;50.882;5.984;2023-12-20T09:12:51;99592.09;;;3.84;98.53
83361;BME280;73274;50.882;5.984;2023-12-20T09:15:17;99596.91;;;3.87;98.54
83361;BME280;73274;50.882;5.984;2023-12-20T09:17:42;99592.69;;;3.86;98.00
83361;BME280;73274;50.882;5.984;2023-12-20T09:20:09;99598.06;;;3.91;98.01
83361;BME280;73274;50.882;5.984;2023-12-20T09:22:35;99605.25;;;3.96;98.04
83361;BME280;73274;50.882;5.984;2023-12-20T09:25:00;99599.88;;;4.02;97.84
83361;BME280;73274;50.882;5.984;2023-12-20T09:27:27;99588.78;;;4.00;97.48
83361;BME280;73274;50.882;5.984;2023-12-20T09:29:54;99579.56;;;3.86;98.04
83361;BME280;73274;50.882;5.984;2023-12-20T09:32:19;99577.63;;;3.81;98.61
83361;BME280;73274;50.882;5.984;2023-12-20T09:34:47;99585.94;;;3.90;98.52
83361;BME280;73274;50.882;5.984;2023-12-20T09:37:13;99583.91;;;3.92;98.25
83361;BME280;73274;50.882;5.984;2023-12-20T09:39:39;99568.94;;;3.81;98.14
83361;BME280;73274;50.882;5.984;2023-12-20T09:42:06;99594.75;;;3.96;98.08
83361;BME280;73274;50.882;5.984;2023-12-20T09:44:32;99592.91;;;3.96;97.86
83361;BME280;73274;50.882;5.984;2023-12-20T09:47:05;99583.44;;;3.95;98.02
83361;BME280;73274;50.882;5.984;2023-12-20T09:49:32;99598.72;;;4.10;97.22
83361;BME280;73274;50.882;5.984;2023-12-20T09:51:59;99605.44;;;4.17;96.94
83361;BME280;73274;50.882;5.984;2023-12-20T09:54:27;99606.91;;;4.25;97.11
83361;BME280;73274;50.882;5.984;2023-12-20T09:56:53;99595.25;;;4.21;97.21
83361;BME280;73274;50.882;5.984;2023-12-20T09:59:19;99598.03;;;4.14;97.13
83361;BME280;73274;50.882;5.984;2023-12-20T10:01:45;99600.53;;;4.09;97.06
83361;BME280;73274;50.882;5.984;2023-12-20T10:04:12;99595.50;;;4.19;97.09
83361;BME280;73274;50.882;5.984;2023-12-20T10:06:42;99599.38;;;4.28;97.10
83361;BME280;73274;50.882;5.984;2023-12-20T10:09:09;99594.91;;;4.29;95.95
83361;BME280;73274;50.882;5.984;2023-12-20T10:11:36;99571.97;;;4.24;95.28
83361;BME280;73274;50.882;5.984;2023-12-20T10:14:03;99584.06;;;4.25;95.82
83361;BME280;73274;50.882;5.984;2023-12-20T10:16:29;99583.28;;;4.25;95.69
83361;BME280;73274;50.882;5.984;2023-12-20T10:18:55;99573.91;;;4.29;95.97
83361;BME280;73274;50.882;5.984;2023-12-20T10:21:22;99584.94;;;4.43;95.44
83361;BME280;73274;50.882;5.984;2023-12-20T10:23:48;99577.16;;;4.48;95.02
83361;BME280;73274;50.882;5.984;2023-12-20T10:26:25;99576.91;;;4.61;94.90
83361;BME280;73274;50.882;5.984;2023-12-20T10:28:53;99561.25;;;4.54;94.66
83361;BME280;73274;50.882;5.984;2023-12-20T10:31:32;99559.09;;;4.51;94.40
83361;BME280;73274;50.882;5.984;2023-12-20T10:33:58;99561.81;;;4.56;94.62
83361;BME280;73274;50.882;5.984;2023-12-20T10:36:26;99560.94;;;4.51;94.59
83361;BME280;73274;50.882;5.984;2023-12-20T10:38:53;99554.06;;;4.50;94.72
83361;BME280;73274;50.882;5.984;2023-12-20T10:41:25;99539.63;;;4.35;94.65
83361;BME280;73274;50.882;5.984;2023-12-20T10:43:51;99553.41;;;4.43;94.91
83361;BME280;73274;50.882;5.984;2023-12-20T10:46:19;99551.03;;;4.41;95.15
83361;BME280;73274;50.882;5.984;2023-12-20T10:48:45;99548.72;;;4.45;95.44
83361;BME280;73274;50.882;5.984;2023-12-20T10:51:11;99551.03;;;4.41;95.06
83361;BME280;73274;50.882;5.984;2023-12-20T10:53:38;99556.28;;;4.41;95.34
83361;BME280;73274;50.882;5.984;2023-12-20T10:56:06;99542.59;;;4.39;95.39
83361;BME280;73274;50.882;5.984;2023-12-20T10:58:33;99561.47;;;4.53;94.61
83361;BME280;73274;50.882;5.984;2023-12-20T11:01:01;99539.56;;;4.47;94.76
83361;BME280;73274;50.882;5.984;2023-12-20T11:03:27;99552.78;;;4.52;95.30
83361;BME280;73274;50.882;5.984;2023-12-20T11:11:35;99543.75;;;4.60;95.24
83361;BME280;73274;50.882;5.984;2023-12-20T11:14:06;99546.00;;;4.68;94.46
83361;BME280;73274;50.882;5.984;2023-12-20T11:16:37;99531.28;;;4.67;94.22
83361;BME280;73274;50.882;5.984;2023-12-20T11:19:05;99525.88;;;4.73;94.55
83361;BME280;73274;50.882;5.984;2023-12-20T11:21:31;99530.75;;;4.81;94.24
83361;BME280;73274;50.882;5.984;2023-12-20T11:23:56;99523.53;;;4.77;93.28
83361;BME280;73274;50.882;5.984;2023-12-20T11:26:28;99542.59;;;4.84;92.96
83361;BME280;73274;50.882;5.984;2023-12-20T11:29:30;99531.53;;;4.82;92.88
83361;BME280;73274;50.882;5.984;2023-12-20T11:31:57;99523.81;;;4.75;93.21
83361;BME280;73274;50.882;5.984;2023-12-20T11:34:27;99507.09;;;4.81;93.32
83361;BME280;73274;50.882;5.984;2023-12-20T11:37:02;99533.53;;;4.92;93.53
83361;BME280;73274;50.882;5.984;2023-12-20T11:39:28;99531.13;;;4.90;93.07
83361;BME280;73274;50.882;5.984;2023-12-20T11:41:56;99526.59;;;4.85;93.44
83361;BME280;73274;50.882;5.984;2023-12-20T11:44:23;99526.59;;;4.85;93.74
83361;BME280;73274;50.882;5.984;2023-12-20T11:46:51;99515.78;;;4.82;93.54
83361;BME280;73274;50.882;5.984;2023-12-20T11:49:16;99529.53;;;4.89;93.35
83361;BME280;73274;50.882;5.984;2023-12-20T11:51:42;99532.16;;;4.89;93.23
83361;BME280;73274;50.882;5.984;2023-12-20T11:54:07;99527.22;;;4.93;93.77
83361;BME280;73274;50.882;5.984;2023-12-20T11:56:35;99502.69;;;4.87;93.09
83361;BME280;73274;50.882;5.984;2023-12-20T11:59:01;99512.38;;;4.98;93.35
83361;BME280;73274;50.882;5.984;2023-12-20T12:01:26;99499.44;;;4.97;93.22
83361;BME280;73274;50.882;5.984;2023-12-20T12:04:05;99504.00;;;5.01;93.46
83361;BME280;73274;50.882;5.984;2023-12-20T12:06:31;99490.28;;;4.99;93.60
83361;BME280;73274;50.882;5.984;2023-12-20T12:08:57;99482.47;;;4.87;93.40
83361;BME280;73274;50.882;5.984;2023-12-20T12:11:23;99491.06;;;5.00;93.56
83361;BME280;73274;50.882;5.984;2023-12-20T12:13:49;99481.03;;;4.97;93.67
83361;BME280;73274;50.882;5.984;2023-12-20T12:16:18;99435.53;;;4.63;93.92
83361;BME280;73274;50.882;5.984;2023-12-20T12:18:45;99468.78;;;4.85;94.11
83361;BME280;73274;50.882;5.984;2023-12-20T12:21:12;99473.63;;;4.94;94.33
83361;BME280;73274;50.882;5.984;2023-12-20T12:23:43;99461.66;;;4.86;94.61
83361;BME280;73274;50.882;5.984;2023-12-20T12:26:09;99482.84;;;4.96;94.41
83361;BME280;73274;50.882;5.984;2023-12-20T12:28:34;99488.44;;;5.00;94.37
83361;BME280;73274;50.882;5.984;2023-12-20T12:31:00;99487.41;;;5.01;94.75
83361;BME280;73274;50.882;5.984;2023-12-20T12:33:26;99479.44;;;4.96;95.16
83361;BME280;73274;50.882;5.984;2023-12-20T12:35:52;99484.63;;;4.90;96.03
83361;BME280;73274;50.882;5.984;2023-12-20T12:38:21;99483.28;;;4.88;96.32
83361;BME280;73274;50.882;5.984;2023-12-20T12:40:47;99476.47;;;4.92;96.71
83361;BME280;73274;50.882;5.984;2023-12-20T12:43:12;99486.06;;;4.98;97.08
83361;BME280;73274;50.882;5.984;2023-12-20T12:45:38;99459.69;;;4.93;97.23
83361;BME280;73274;50.882;5.984;2023-12-20T12:48:04;99456.03;;;4.94;98.22
83361;BME280;73274;50.882;5.984;2023-12-20T12:50:30;99457.69;;;5.00;98.77
83361;BME280;73274;50.882;5.984;2023-12-20T12:52:56;99460.25;;;4.95;98.49
83361;BME280;73274;50.882;5.984;2023-12-20T12:55:21;99446.63;;;4.98;99.10
83361;BME280;73274;50.882;5.984;2023-12-20T12:57:47;99455.00;;;4.95;99.33
83361;BME280;73274;50.882;5.984;2023-12-20T13:00:12;99449.47;;;4.97;99.59
83361;BME280;73274;50.882;5.984;2023-12-20T13:02:39;99440.25;;;4.94;99.87
83361;BME280;73274;50.882;5.984;2023-12-20T13:05:08;99450.75;;;4.94;99.12